createdAt,value
2022-09-01T00:00:54.849Z,99464.98
2022-09-01T00:06:01.030Z,99456.80
2022-09-01T00:11:09.657Z,99455.04
2022-09-01T00:16:20.951Z,99450.21
2022-09-01T00:21:37.269Z,99449.41
2022-09-01T00:26:48.030Z,99445.58
2022-09-01T00:32:03.880Z,99448.08
2022-09-01T00:37:16.764Z,99453.81
2022-09-01T00:42:25.226Z,99456.60
2022-09-01T00:47:32.887Z,99456.11
2022-09-01T00:52:49.764Z,99455.05
2022-09-01T00:57:58.060Z,99454.58
2022-09-01T01:03:08.880Z,99451.48
2022-09-01T01:08:21.917Z,99452.11
2022-09-01T01:13:32.596Z,99456.17
2022-09-01T01:18:41.640Z,99461.94
2022-09-01T01:23:59.598Z,99461.00
2022-09-01T01:29:09.949Z,99457.55
2022-09-01T01:34:24.468Z,99465.44
2022-09-01T01:39:41.357Z,99465.36
2022-09-01T01:44:50.856Z,99458.84
2022-09-01T01:50:09.788Z,99456.05
2022-09-01T01:55:19.702Z,99452.77
2022-09-01T02:00:47.781Z,99449.91
2022-09-01T02:05:57.103Z,99454.94
2022-09-01T02:11:06.616Z,99452.59
2022-09-01T02:16:21.579Z,99461.16
2022-09-01T02:21:32.460Z,99466.40
2022-09-01T02:26:51.992Z,99461.64
2022-09-01T02:32:12.088Z,99468.09
2022-09-01T02:42:44.549Z,99463.73
2022-09-01T02:48:05.090Z,99467.90
2022-09-01T02:58:49.651Z,99462.91
2022-09-01T03:03:59.626Z,99454.96
2022-09-01T03:09:11.217Z,99451.19
2022-09-01T03:14:19.453Z,99449.16
2022-09-01T03:19:27.634Z,99443.57
2022-09-01T03:24:35.293Z,99448.02
2022-09-01T03:29:44.138Z,99449.23
2022-09-01T03:34:55.026Z,99452.38
2022-09-01T03:40:07.538Z,99458.19
2022-09-01T03:45:21.741Z,99459.65
2022-09-01T03:50:28.707Z,99459.33
2022-09-01T03:55:38.509Z,99462.73
2022-09-01T04:00:48.919Z,99462.04
2022-09-01T04:06:04.137Z,99461.01
2022-09-01T04:11:20.571Z,99459.87
2022-09-01T04:16:48.710Z,99467.88
2022-09-01T04:22:16.754Z,99472.89
2022-09-01T04:27:27.726Z,99472.35
2022-09-01T04:32:39.646Z,99474.16
2022-09-01T04:38:02.362Z,99475.00
2022-09-01T04:43:22.072Z,99475.42
2022-09-01T04:48:32.742Z,99480.34
2022-09-01T04:53:43.421Z,99481.40
2022-09-01T04:58:56.204Z,99483.52
2022-09-01T05:04:08.159Z,99482.25
2022-09-01T05:09:19.296Z,99479.52
2022-09-01T05:14:30.246Z,99481.23
2022-09-01T05:19:41.231Z,99477.94
2022-09-01T05:24:54.986Z,99474.23
2022-09-01T05:30:09.510Z,99474.31
2022-09-01T05:35:20.874Z,99474.58
2022-09-01T05:40:30.898Z,99475.13
2022-09-01T05:46:05.231Z,99475.34
2022-09-01T05:51:42.312Z,99477.75
2022-09-01T05:56:48.409Z,99482.67
2022-09-01T06:01:57.276Z,99482.88
2022-09-01T06:07:16.885Z,99482.57
2022-09-01T06:12:33.296Z,99483.73
2022-09-01T06:17:46.316Z,99482.41
2022-09-01T06:23:00.966Z,99484.64
2022-09-01T06:28:31.702Z,99477.89
2022-09-01T06:33:43.843Z,99483.45
2022-09-01T06:39:00.881Z,99489.23
2022-09-01T06:44:14.843Z,99499.65
2022-09-01T06:49:32.829Z,99498.98
2022-09-01T06:54:51.694Z,99497.59
2022-09-01T07:00:19.064Z,99508.33
2022-09-01T07:16:32.882Z,99513.59
2022-09-01T07:21:42.345Z,99513.84
2022-09-01T07:27:11.035Z,99520.52
2022-09-01T07:43:22.577Z,99517.02
2022-09-01T07:54:02.630Z,99518.00
2022-09-01T07:59:14.947Z,99511.85
2022-09-01T08:04:24.238Z,99510.20
2022-09-01T08:09:37.757Z,99515.50
2022-09-01T08:14:47.224Z,99510.64
2022-09-01T08:19:55.356Z,99504.45
2022-09-01T08:25:03.696Z,99509.23
2022-09-01T08:30:14.676Z,99508.12
2022-09-01T08:35:23.095Z,99507.26
2022-09-01T08:40:30.513Z,99503.10
2022-09-01T08:45:47.500Z,99506.15
2022-09-01T08:51:00.731Z,99501.64
2022-09-01T08:56:11.047Z,99502.94
2022-09-01T09:01:27.871Z,99501.58
2022-09-01T09:06:42.661Z,99506.11
2022-09-01T09:12:16.552Z,99504.90
2022-09-01T09:17:30.879Z,99500.52
2022-09-01T09:22:39.240Z,99496.79
2022-09-01T09:27:48.073Z,99488.46
2022-09-01T09:33:46.587Z,99491.69
2022-09-01T09:38:33.252Z,99494.98
2022-09-01T09:43:47.511Z,99491.77
2022-09-01T09:49:11.774Z,99490.56
2022-09-01T09:54:24.296Z,99490.16
2022-09-01T09:59:57.191Z,99495.48
2022-09-01T10:05:05.547Z,99488.98
2022-09-01T10:10:30.685Z,99485.15
2022-09-01T10:15:40.646Z,99484.01
2022-09-01T10:20:53.683Z,99483.54
2022-09-01T10:26:09.579Z,99483.44
2022-09-01T10:31:18.640Z,99484.59
2022-09-01T10:36:26.123Z,99480.06
2022-09-01T10:41:59.591Z,99474.81
2022-09-01T10:47:26.016Z,99482.67
2022-09-01T10:52:58.491Z,99471.36
2022-09-01T11:04:01.440Z,99470.14
2022-09-01T11:09:22.813Z,99474.88
2022-09-01T11:14:36.150Z,99462.64
2022-09-01T11:19:46.087Z,99459.85
2022-09-01T11:25:40.864Z,99463.30
2022-09-01T11:30:55.494Z,99466.98
2022-09-01T11:36:08.296Z,99465.81
2022-09-01T11:41:26.149Z,99451.70
2022-09-01T11:46:44.364Z,99455.70
2022-09-01T11:51:52.013Z,99456.95
2022-09-01T11:56:59.831Z,99441.86
2022-09-01T12:02:09.187Z,99447.31
2022-09-01T12:07:37.550Z,99451.06
2022-09-01T12:12:46.452Z,99445.43
2022-09-01T12:17:55.303Z,99438.21
2022-09-01T12:23:04.019Z,99441.16
2022-09-01T12:28:12.589Z,99440.13
2022-09-01T12:33:25.102Z,99440.33
2022-09-01T12:38:34.142Z,99434.16
2022-09-01T12:43:43.362Z,99433.20
2022-09-01T12:48:53.623Z,99430.08
2022-09-01T12:54:04.711Z,99422.34
2022-09-01T12:59:20.985Z,99420.99
2022-09-01T13:04:39.945Z,99433.65
2022-09-01T13:09:47.498Z,99434.08
2022-09-01T13:14:54.547Z,99429.66
2022-09-01T13:20:03.852Z,99431.73
2022-09-01T13:25:13.559Z,99433.77
2022-09-01T13:30:28.683Z,99432.32
2022-09-01T13:35:36.213Z,99437.80
2022-09-01T13:40:46.462Z,99434.87
2022-09-01T13:45:56.631Z,99436.17
2022-09-01T13:51:15.623Z,99430.42
2022-09-01T13:56:25.133Z,99426.86
2022-09-01T14:01:43.340Z,99429.77
2022-09-01T14:07:00.093Z,99429.87
2022-09-01T14:12:33.721Z,99430.80
2022-09-01T14:17:43.605Z,99429.31
2022-09-01T14:22:52.651Z,99425.44
2022-09-01T14:28:04.595Z,99427.98
2022-09-01T14:33:16.244Z,99426.76
2022-09-01T14:38:25.086Z,99423.67
2022-09-01T14:43:38.432Z,99414.45
2022-09-01T14:48:48.992Z,99418.38
2022-09-01T14:53:57.448Z,99417.73
2022-09-01T14:59:09.142Z,99418.70
2022-09-01T15:04:17.220Z,99417.64
2022-09-01T15:09:25.510Z,99417.42
2022-09-01T15:14:38.236Z,99419.69
2022-09-01T15:20:37.520Z,99426.66
2022-09-01T15:25:48.763Z,99427.93
2022-09-01T15:31:00.351Z,99427.98
2022-09-01T15:36:16.321Z,99432.30
2022-09-01T15:41:32.053Z,99431.65
2022-09-01T15:46:54.626Z,99427.03
2022-09-01T15:52:08.505Z,99424.71
2022-09-01T15:57:37.067Z,99425.52
2022-09-01T16:02:49.127Z,99431.30
2022-09-01T16:08:15.218Z,99434.38
2022-09-01T16:13:40.470Z,99432.55
2022-09-01T16:18:56.782Z,99434.48
2022-09-01T16:24:13.572Z,99438.11
2022-09-01T16:29:45.108Z,99437.04
2022-09-01T16:34:57.772Z,99446.02
2022-09-01T16:40:19.179Z,99440.56
2022-09-01T16:45:43.031Z,99443.45
2022-09-01T16:50:58.979Z,99443.19
2022-09-01T16:56:12.459Z,99443.58
2022-09-01T17:01:30.654Z,99447.83
2022-09-01T17:06:56.672Z,99452.80
2022-09-01T17:12:23.604Z,99459.08
2022-09-01T17:17:40.576Z,99468.22
2022-09-01T17:22:53.779Z,99476.89
2022-09-01T17:28:04.967Z,99478.10
2022-09-01T17:33:23.643Z,99476.88
2022-09-01T17:38:40.020Z,99479.13
2022-09-01T17:44:32.419Z,99480.55
2022-09-01T17:50:26.608Z,99483.73
2022-09-01T17:55:51.067Z,99489.73
2022-09-01T18:01:17.643Z,99495.58
2022-09-01T18:06:52.952Z,99494.95
2022-09-01T18:12:10.256Z,99500.57
2022-09-01T18:17:30.009Z,99507.90
2022-09-01T18:23:01.387Z,99516.52
2022-09-01T18:28:22.272Z,99522.52
2022-09-01T18:34:07.087Z,99524.95
2022-09-01T18:39:31.056Z,99526.57
2022-09-01T18:45:09.048Z,99520.38
2022-09-01T18:51:13.640Z,99522.84
2022-09-01T18:56:57.477Z,99522.86
2022-09-01T19:02:34.101Z,99524.71
2022-09-01T19:07:56.039Z,99533.40
2022-09-01T19:13:15.626Z,99541.51
2022-09-01T19:25:14.667Z,99545.84
2022-09-01T19:30:56.721Z,99549.15
2022-09-01T19:36:26.997Z,99548.90
2022-09-01T19:42:25.630Z,99550.27
2022-09-01T19:48:01.575Z,99552.93
2022-09-01T19:54:44.570Z,99553.39
2022-09-01T20:00:27.358Z,99550.56
2022-09-01T20:06:22.779Z,99551.25
2022-09-01T20:31:37.818Z,99562.46
2022-09-01T20:37:42.260Z,99564.16
2022-09-01T20:43:52.600Z,99570.00
2022-09-01T20:49:44.218Z,99575.11
2022-09-01T20:55:21.429Z,99579.16
2022-09-01T21:01:49.011Z,99575.34
2022-09-01T21:07:31.060Z,99579.11
2022-09-01T21:32:34.170Z,99596.05
2022-09-01T21:38:35.209Z,99593.80
2022-09-01T21:44:28.896Z,99590.86
2022-09-01T21:56:49.673Z,99597.89
2022-09-01T22:02:34.546Z,99593.52
2022-09-01T22:07:47.898Z,99593.28
2022-09-01T22:13:04.022Z,99588.55
2022-09-01T22:18:16.348Z,99591.48
2022-09-01T22:23:27.335Z,99589.23
2022-09-01T22:28:44.665Z,99590.14
2022-09-01T22:33:58.019Z,99588.52
2022-09-01T22:39:12.349Z,99589.98
2022-09-01T22:44:23.480Z,99592.42
2022-09-01T22:49:33.641Z,99591.32
2022-09-01T22:54:45.831Z,99587.61
2022-09-01T23:00:22.476Z,99586.73
2022-09-01T23:05:51.431Z,99586.85
2022-09-01T23:11:02.270Z,99584.02
2022-09-01T23:16:22.446Z,99579.97
2022-09-01T23:21:33.695Z,99581.48
2022-09-01T23:26:45.009Z,99584.23
2022-09-01T23:32:06.865Z,99588.72
2022-09-01T23:37:15.531Z,99589.73
2022-09-01T23:42:25.916Z,99592.71
2022-09-01T23:47:35.849Z,99594.09
2022-09-01T23:52:44.256Z,99589.78
2022-09-01T23:57:51.974Z,99584.94
